AAL738 KBUF-KLGA
Flight info
| Callsign | AAL738 |
|---|---|
| Flight time | 0h 50m |
| Altitude | 31000 |
| Route | GEE AUDIL RAHKS VADDR1 |
| Aircraft | B738/M-SDE2E3FGHIRWXY/LB1 |
Departure
| Time | 2026-05-07 15:29 |
|---|---|
| Airport | Buffalo Niagara International Airport (KBUF) |
Arrival
| Time | 2026-05-07 16:20 |
|---|---|
| Airport | LaGuardia Airport (KLGA) |
| Time | Latitude | Longitude | Altitude | Speed | Heading |
|---|---|---|---|---|---|
| 2026-05-07 15:07 | 42.93334 | -78.73479 | 707 ft | 0 kts | 180° |
| 2026-05-07 15:16 | 42.93342 | -78.73478 | 699 ft | 3 kts | 180° |
| 2026-05-07 15:16 | 42.93362 | -78.73478 | 701 ft | 3 kts | 180° |
| 2026-05-07 15:17 | 42.93383 | -78.73478 | 696 ft | 3 kts | 180° |
| 2026-05-07 15:17 | 42.93403 | -78.73479 | 699 ft | 3 kts | 158° |
| 2026-05-07 15:17 | 42.93419 | -78.73495 | 699 ft | 3 kts | 113° |
| 2026-05-07 15:17 | 42.93422 | -78.73523 | 697 ft | 3 kts | 68° |
| 2026-05-07 15:18 | 42.93410 | -78.73544 | 697 ft | 3 kts | 26° |
| 2026-05-07 15:18 | 42.93409 | -78.73545 | 697 ft | 0 kts | 26° |
| 2026-05-07 15:24 | 42.93425 | -78.73533 | 711 ft | 7 kts | 28° |
| 2026-05-07 15:24 | 42.93490 | -78.73476 | 713 ft | 15 kts | 39° |
| 2026-05-07 15:24 | 42.93588 | -78.73350 | 715 ft | 24 kts | 44° |
| 2026-05-07 15:25 | 42.93730 | -78.73164 | 718 ft | 32 kts | 44° |
| 2026-05-07 15:25 | 42.93895 | -78.72945 | 717 ft | 33 kts | 44° |
| 2026-05-07 15:25 | 42.94054 | -78.72733 | 713 ft | 27 kts | 43° |
| 2026-05-07 15:25 | 42.94157 | -78.72600 | 716 ft | 19 kts | 43° |
| 2026-05-07 15:26 | 42.94250 | -78.72478 | 721 ft | 18 kts | 44° |
| 2026-05-07 15:26 | 42.94341 | -78.72360 | 717 ft | 18 kts | 44° |
| 2026-05-07 15:26 | 42.94427 | -78.72246 | 720 ft | 17 kts | 44° |
| 2026-05-07 15:26 | 42.94511 | -78.72136 | 717 ft | 16 kts | 44° |
| 2026-05-07 15:27 | 42.94592 | -78.72030 | 716 ft | 16 kts | 43° |
| 2026-05-07 15:27 | 42.94670 | -78.71929 | 717 ft | 15 kts | 44° |
| 2026-05-07 15:27 | 42.94738 | -78.71840 | 716 ft | 9 kts | 42° |
| 2026-05-07 15:27 | 42.94795 | -78.71821 | 719 ft | 9 kts | 342° |
| 2026-05-07 15:28 | 42.94838 | -78.71874 | 720 ft | 8 kts | 296° |
| 2026-05-07 15:28 | 42.94810 | -78.71952 | 715 ft | 13 kts | 220° |
| 2026-05-07 15:28 | 42.94664 | -78.72142 | 718 ft | 61 kts | 224° |
| 2026-05-07 15:28 | 42.94187 | -78.72765 | 715 ft | 130 kts | 224° |
| 2026-05-07 15:29 | 42.93392 | -78.73802 | 1021 ft | 162 kts | 225° |
| 2026-05-07 15:29 | 42.92609 | -78.74944 | 1831 ft | 174 kts | 230° |
| 2026-05-07 15:29 | 42.91694 | -78.76179 | 2361 ft | 193 kts | 226° |
| 2026-05-07 15:29 | 42.90662 | -78.77499 | 2713 ft | 209 kts | 224° |
| 2026-05-07 15:30 | 42.89333 | -78.78355 | 3254 ft | 224 kts | 187° |
| 2026-05-07 15:30 | 42.87796 | -78.77791 | 3655 ft | 246 kts | 149° |
| 2026-05-07 15:30 | 42.86579 | -78.75987 | 3880 ft | 272 kts | 122° |
| 2026-05-07 15:30 | 42.85851 | -78.73558 | 4459 ft | 283 kts | 103° |
| 2026-05-07 15:31 | 42.85538 | -78.70900 | 5316 ft | 285 kts | 97° |
| 2026-05-07 15:31 | 42.85325 | -78.68190 | 6092 ft | 291 kts | 96° |
| 2026-05-07 15:31 | 42.85126 | -78.65435 | 6898 ft | 293 kts | 95° |
| 2026-05-07 15:31 | 42.84967 | -78.62657 | 7688 ft | 296 kts | 95° |
| 2026-05-07 15:32 | 42.84805 | -78.59845 | 8453 ft | 299 kts | 95° |
| 2026-05-07 15:32 | 42.84616 | -78.56999 | 9219 ft | 303 kts | 96° |
| 2026-05-07 15:32 | 42.84398 | -78.54121 | 9953 ft | 307 kts | 97° |
| 2026-05-07 15:32 | 42.84154 | -78.51187 | 10414 ft | 322 kts | 98° |
| 2026-05-07 15:33 | 42.83872 | -78.48039 | 10587 ft | 345 kts | 98° |
| 2026-05-07 15:33 | 42.83561 | -78.44713 | 10978 ft | 359 kts | 98° |
| 2026-05-07 15:33 | 42.83231 | -78.41300 | 11556 ft | 367 kts | 99° |
| 2026-05-07 15:33 | 42.82889 | -78.37822 | 12186 ft | 374 kts | 99° |
| 2026-05-07 15:34 | 42.82534 | -78.34275 | 12826 ft | 381 kts | 99° |
| 2026-05-07 15:34 | 42.82174 | -78.30709 | 13458 ft | 388 kts | 99° |
| 2026-05-07 15:34 | 42.81800 | -78.27043 | 14059 ft | 395 kts | 99° |
| 2026-05-07 15:34 | 42.81418 | -78.23306 | 14727 ft | 399 kts | 99° |
| 2026-05-07 15:35 | 42.81031 | -78.19544 | 15433 ft | 403 kts | 100° |
| 2026-05-07 15:35 | 42.80638 | -78.15738 | 16122 ft | 407 kts | 100° |
| 2026-05-07 15:35 | 42.80241 | -78.11899 | 16789 ft | 412 kts | 100° |
| 2026-05-07 15:35 | 42.79837 | -78.08015 | 17447 ft | 417 kts | 100° |
| 2026-05-07 15:36 | 42.79427 | -78.04085 | 18102 ft | 422 kts | 100° |
| 2026-05-07 15:36 | 42.79011 | -78.00109 | 18674 ft | 427 kts | 101° |
| 2026-05-07 15:36 | 42.78588 | -77.96087 | 19206 ft | 432 kts | 101° |
| 2026-05-07 15:36 | 42.78157 | -77.92004 | 19704 ft | 438 kts | 101° |
| 2026-05-07 15:37 | 42.77720 | -77.87873 | 20215 ft | 444 kts | 102° |
| 2026-05-07 15:37 | 42.77275 | -77.83692 | 20734 ft | 449 kts | 102° |
| 2026-05-07 15:37 | 42.76824 | -77.79456 | 21269 ft | 454 kts | 102° |
| 2026-05-07 15:37 | 42.76365 | -77.75172 | 21763 ft | 459 kts | 103° |
| 2026-05-07 15:38 | 42.75908 | -77.70907 | 22256 ft | 464 kts | 103° |
| 2026-05-07 15:38 | 42.75437 | -77.66541 | 22752 ft | 469 kts | 103° |
| 2026-05-07 15:38 | 42.74960 | -77.62128 | 23232 ft | 474 kts | 103° |
| 2026-05-07 15:38 | 42.74475 | -77.57657 | 23643 ft | 479 kts | 104° |
| 2026-05-07 15:39 | 42.73982 | -77.53140 | 23978 ft | 486 kts | 104° |
| 2026-05-07 15:39 | 42.73482 | -77.48570 | 24348 ft | 490 kts | 104° |
| 2026-05-07 15:39 | 42.72979 | -77.43969 | 24787 ft | 493 kts | 104° |
| 2026-05-07 15:39 | 42.72471 | -77.39344 | 25201 ft | 496 kts | 104° |
| 2026-05-07 15:40 | 42.71958 | -77.34697 | 25576 ft | 500 kts | 104° |
| 2026-05-07 15:40 | 42.71436 | -77.29993 | 25950 ft | 504 kts | 104° |
| 2026-05-07 15:40 | 42.70909 | -77.25268 | 26329 ft | 507 kts | 104° |
| 2026-05-07 15:40 | 42.70377 | -77.20504 | 26666 ft | 511 kts | 105° |
| 2026-05-07 15:41 | 42.69837 | -77.15704 | 26957 ft | 516 kts | 105° |
| 2026-05-07 15:41 | 42.69290 | -77.10862 | 27316 ft | 520 kts | 105° |
| 2026-05-07 15:41 | 42.68740 | -77.05995 | 27705 ft | 522 kts | 105° |
| 2026-05-07 15:41 | 42.68185 | -77.01105 | 28100 ft | 524 kts | 105° |
| 2026-05-07 15:42 | 42.67628 | -76.96205 | 28568 ft | 524 kts | 105° |
| 2026-05-07 15:42 | 42.67069 | -76.91300 | 28999 ft | 525 kts | 105° |
| 2026-05-07 15:42 | 42.65919 | -76.81356 | 28975 ft | 541 kts | 106° |
| 2026-05-07 15:43 | 42.64733 | -76.71166 | 28964 ft | 547 kts | 106° |
| 2026-05-07 15:43 | 42.63545 | -76.60963 | 28976 ft | 546 kts | 106° |
| 2026-05-07 15:44 | 42.62347 | -76.50767 | 28967 ft | 546 kts | 106° |
| 2026-05-07 15:44 | 42.57791 | -76.12884 | 28930 ft | 542 kts | 108° |
| 2026-05-07 15:45 | 42.52796 | -75.72502 | 28893 ft | 545 kts | 108° |
| 2026-05-07 15:45 | 42.47637 | -75.31945 | 28922 ft | 547 kts | 109° |
| 2026-05-07 15:46 | 42.45501 | -75.20470 | 28950 ft | 527 kts | 126° |
| 2026-05-07 15:46 | 42.41624 | -75.10026 | 28978 ft | 521 kts | 130° |
| 2026-05-07 15:47 | 42.28530 | -74.74682 | 28942 ft | 528 kts | 129° |
| 2026-05-07 15:47 | 42.22499 | -74.58381 | 28933 ft | 528 kts | 129° |
| 2026-05-07 15:48 | 42.19763 | -74.51027 | 28937 ft | 524 kts | 130° |
| 2026-05-07 15:48 | 42.18155 | -74.46696 | 28845 ft | 510 kts | 130° |
| 2026-05-07 15:48 | 42.16571 | -74.42451 | 28456 ft | 502 kts | 130° |
| 2026-05-07 15:48 | 42.15001 | -74.38271 | 27964 ft | 496 kts | 130° |
| 2026-05-07 15:49 | 42.13453 | -74.34156 | 27546 ft | 489 kts | 130° |
| 2026-05-07 15:49 | 42.11925 | -74.30096 | 27126 ft | 483 kts | 130° |
| 2026-05-07 15:49 | 42.10365 | -74.26118 | 26691 ft | 472 kts | 135° |
| 2026-05-07 15:49 | 42.08644 | -74.22467 | 26180 ft | 465 kts | 138° |
| 2026-05-07 15:50 | 42.06828 | -74.18899 | 25723 ft | 460 kts | 139° |
| 2026-05-07 15:50 | 42.05000 | -74.15381 | 25286 ft | 456 kts | 138° |
| 2026-05-07 15:50 | 42.03196 | -74.11891 | 24862 ft | 453 kts | 137° |
| 2026-05-07 15:50 | 42.01419 | -74.08407 | 24465 ft | 449 kts | 136° |
| 2026-05-07 15:51 | 41.99673 | -74.04951 | 24058 ft | 445 kts | 136° |
| 2026-05-07 15:51 | 41.97943 | -74.01509 | 23654 ft | 442 kts | 135° |
| 2026-05-07 15:51 | 41.96231 | -73.98100 | 23118 ft | 440 kts | 136° |
| 2026-05-07 15:51 | 41.94526 | -73.94705 | 22672 ft | 436 kts | 136° |
| 2026-05-07 15:52 | 41.92834 | -73.91340 | 22258 ft | 432 kts | 135° |
| 2026-05-07 15:52 | 41.91157 | -73.88017 | 21838 ft | 428 kts | 135° |
| 2026-05-07 15:52 | 41.89317 | -73.85016 | 21407 ft | 401 kts | 153° |
| 2026-05-07 15:52 | 41.87056 | -73.83152 | 21022 ft | 369 kts | 170° |
| 2026-05-07 15:53 | 41.84682 | -73.82137 | 20322 ft | 354 kts | 182° |
| 2026-05-07 15:53 | 41.82310 | -73.81865 | 19862 ft | 335 kts | 193° |
| 2026-05-07 15:53 | 41.79989 | -73.81922 | 19468 ft | 330 kts | 193° |
| 2026-05-07 15:53 | 41.77712 | -73.81993 | 18891 ft | 324 kts | 193° |
| 2026-05-07 15:54 | 41.75445 | -73.82062 | 18094 ft | 328 kts | 192° |
| 2026-05-07 15:54 | 41.73156 | -73.82117 | 17314 ft | 329 kts | 191° |
| 2026-05-07 15:54 | 41.70890 | -73.82156 | 16729 ft | 324 kts | 191° |
| 2026-05-07 15:54 | 41.68656 | -73.82190 | 16148 ft | 319 kts | 191° |
| 2026-05-07 15:55 | 41.66445 | -73.82256 | 15523 ft | 313 kts | 194° |
| 2026-05-07 15:55 | 41.64333 | -73.82683 | 14903 ft | 304 kts | 200° |
| 2026-05-07 15:55 | 41.62274 | -73.83245 | 14295 ft | 300 kts | 200° |
| 2026-05-07 15:55 | 41.60257 | -73.83803 | 13689 ft | 298 kts | 200° |
| 2026-05-07 15:56 | 41.58209 | -73.84359 | 13033 ft | 296 kts | 200° |
| 2026-05-07 15:56 | 41.56216 | -73.84890 | 12357 ft | 295 kts | 200° |
| 2026-05-07 15:56 | 41.54198 | -73.85420 | 11692 ft | 295 kts | 200° |
| 2026-05-07 15:56 | 41.52193 | -73.85941 | 11158 ft | 290 kts | 200° |
| 2026-05-07 15:57 | 41.50255 | -73.86436 | 10902 ft | 276 kts | 200° |
| 2026-05-07 15:57 | 41.48407 | -73.86909 | 10565 ft | 267 kts | 201° |
| 2026-05-07 15:57 | 41.46609 | -73.87371 | 10202 ft | 260 kts | 201° |
| 2026-05-07 15:57 | 41.44847 | -73.87803 | 9807 ft | 258 kts | 196° |
| 2026-05-07 15:58 | 41.43012 | -73.87488 | 9451 ft | 277 kts | 171° |
| 2026-05-07 15:58 | 41.41262 | -73.86280 | 9111 ft | 289 kts | 155° |
| 2026-05-07 15:58 | 41.39610 | -73.84744 | 8831 ft | 290 kts | 152° |
| 2026-05-07 15:58 | 41.37956 | -73.83182 | 8565 ft | 292 kts | 152° |
| 2026-05-07 15:59 | 41.36290 | -73.81634 | 8277 ft | 291 kts | 152° |
| 2026-05-07 15:59 | 41.34622 | -73.80109 | 8040 ft | 289 kts | 152° |
| 2026-05-07 15:59 | 41.32951 | -73.78587 | 8007 ft | 292 kts | 152° |
| 2026-05-07 15:59 | 41.31281 | -73.77075 | 7984 ft | 288 kts | 152° |
| 2026-05-07 16:00 | 41.29645 | -73.75595 | 7995 ft | 288 kts | 152° |
| 2026-05-07 16:00 | 41.27976 | -73.74089 | 7995 ft | 292 kts | 152° |
| 2026-05-07 16:00 | 41.26296 | -73.72572 | 7984 ft | 291 kts | 152° |
| 2026-05-07 16:00 | 41.24598 | -73.71040 | 8005 ft | 300 kts | 152° |
| 2026-05-07 16:01 | 41.22850 | -73.69465 | 7981 ft | 304 kts | 151° |
| 2026-05-07 16:01 | 41.21104 | -73.67886 | 7983 ft | 302 kts | 151° |
| 2026-05-07 16:01 | 41.19370 | -73.66318 | 7989 ft | 301 kts | 151° |
| 2026-05-07 16:01 | 41.17637 | -73.64756 | 7956 ft | 300 kts | 152° |
| 2026-05-07 16:02 | 41.15915 | -73.63205 | 7971 ft | 299 kts | 152° |
| 2026-05-07 16:02 | 41.14195 | -73.61661 | 7858 ft | 297 kts | 153° |
| 2026-05-07 16:02 | 41.12354 | -73.60600 | 7519 ft | 284 kts | 178° |
| 2026-05-07 16:02 | 41.10439 | -73.60725 | 7124 ft | 272 kts | 201° |
| 2026-05-07 16:03 | 41.08732 | -73.61701 | 6720 ft | 266 kts | 216° |
| 2026-05-07 16:03 | 41.07004 | -73.62676 | 6319 ft | 277 kts | 198° |
| 2026-05-07 16:03 | 41.05102 | -73.63189 | 5969 ft | 278 kts | 197° |
| 2026-05-07 16:03 | 41.03235 | -73.63719 | 5608 ft | 280 kts | 197° |
| 2026-05-07 16:04 | 41.01339 | -73.64282 | 5277 ft | 279 kts | 197° |
| 2026-05-07 16:04 | 40.99435 | -73.64866 | 4936 ft | 280 kts | 197° |
| 2026-05-07 16:04 | 40.97538 | -73.65468 | 4570 ft | 281 kts | 197° |
| 2026-05-07 16:04 | 40.95653 | -73.66088 | 4298 ft | 277 kts | 197° |
| 2026-05-07 16:05 | 40.93790 | -73.66718 | 4039 ft | 276 kts | 197° |
| 2026-05-07 16:05 | 40.91961 | -73.67453 | 3987 ft | 275 kts | 205° |
| 2026-05-07 16:05 | 40.90200 | -73.68445 | 3976 ft | 274 kts | 207° |
| 2026-05-07 16:05 | 40.88452 | -73.69475 | 3972 ft | 275 kts | 207° |
| 2026-05-07 16:06 | 40.86712 | -73.70507 | 3975 ft | 274 kts | 207° |
| 2026-05-07 16:06 | 40.84999 | -73.71530 | 3974 ft | 273 kts | 207° |
| 2026-05-07 16:06 | 40.83270 | -73.72562 | 3968 ft | 272 kts | 207° |
| 2026-05-07 16:06 | 40.81541 | -73.73591 | 3968 ft | 272 kts | 207° |
| 2026-05-07 16:07 | 40.79821 | -73.74621 | 3981 ft | 272 kts | 207° |
| 2026-05-07 16:07 | 40.78098 | -73.75659 | 3976 ft | 272 kts | 207° |
| 2026-05-07 16:07 | 40.76394 | -73.76741 | 3972 ft | 271 kts | 213° |
| 2026-05-07 16:07 | 40.74845 | -73.78125 | 3985 ft | 267 kts | 223° |
| 2026-05-07 16:08 | 40.73527 | -73.79787 | 3971 ft | 255 kts | 233° |
| 2026-05-07 16:08 | 40.72510 | -73.81608 | 3961 ft | 239 kts | 244° |
| 2026-05-07 16:08 | 40.71814 | -73.83507 | 3952 ft | 223 kts | 255° |
| 2026-05-07 16:08 | 40.71386 | -73.85430 | 3977 ft | 217 kts | 258° |
| 2026-05-07 16:09 | 40.70960 | -73.87321 | 4002 ft | 214 kts | 257° |
| 2026-05-07 16:09 | 40.70529 | -73.89204 | 3988 ft | 215 kts | 258° |
| 2026-05-07 16:09 | 40.70094 | -73.91086 | 3989 ft | 215 kts | 258° |
| 2026-05-07 16:09 | 40.69656 | -73.92970 | 3987 ft | 215 kts | 257° |
| 2026-05-07 16:10 | 40.69216 | -73.94861 | 3977 ft | 217 kts | 257° |
| 2026-05-07 16:10 | 40.68773 | -73.96766 | 3980 ft | 217 kts | 257° |
| 2026-05-07 16:10 | 40.68330 | -73.98668 | 3994 ft | 217 kts | 257° |
| 2026-05-07 16:10 | 40.67891 | -74.00566 | 4002 ft | 216 kts | 257° |
| 2026-05-07 16:11 | 40.67454 | -74.02463 | 3994 ft | 217 kts | 258° |
| 2026-05-07 16:11 | 40.67015 | -74.04367 | 3981 ft | 216 kts | 257° |
| 2026-05-07 16:11 | 40.66568 | -74.06259 | 3984 ft | 217 kts | 252° |
| 2026-05-07 16:11 | 40.65750 | -74.07952 | 3943 ft | 222 kts | 230° |
| 2026-05-07 16:12 | 40.64481 | -74.09104 | 3775 ft | 220 kts | 206° |
| 2026-05-07 16:12 | 40.63131 | -74.09866 | 3666 ft | 208 kts | 204° |
| 2026-05-07 16:12 | 40.61736 | -74.10082 | 3468 ft | 202 kts | 168° |
| 2026-05-07 16:12 | 40.60525 | -74.09191 | 3103 ft | 202 kts | 127° |
| 2026-05-07 16:13 | 40.60014 | -74.07535 | 3027 ft | 197 kts | 86° |
| 2026-05-07 16:13 | 40.60296 | -74.05826 | 3010 ft | 189 kts | 59° |
| 2026-05-07 16:13 | 40.61044 | -74.04432 | 2990 ft | 184 kts | 49° |
| 2026-05-07 16:13 | 40.61830 | -74.03130 | 2986 ft | 179 kts | 43° |
| 2026-05-07 16:14 | 40.62711 | -74.01964 | 2991 ft | 179 kts | 42° |
| 2026-05-07 16:14 | 40.63567 | -74.00809 | 2982 ft | 174 kts | 43° |
| 2026-05-07 16:14 | 40.64378 | -73.99669 | 2965 ft | 164 kts | 44° |
| 2026-05-07 16:14 | 40.65135 | -73.98575 | 2987 ft | 160 kts | 44° |
| 2026-05-07 16:15 | 40.65900 | -73.97510 | 2987 ft | 158 kts | 36° |
| 2026-05-07 16:15 | 40.66779 | -73.96687 | 2876 ft | 153 kts | 28° |
| 2026-05-07 16:15 | 40.67674 | -73.95925 | 2748 ft | 154 kts | 29° |
| 2026-05-07 16:15 | 40.68581 | -73.95149 | 2616 ft | 158 kts | 30° |
| 2026-05-07 16:16 | 40.69485 | -73.94376 | 2480 ft | 156 kts | 29° |
| 2026-05-07 16:16 | 40.70285 | -73.93414 | 2382 ft | 156 kts | 42° |
| 2026-05-07 16:16 | 40.71031 | -73.92351 | 2283 ft | 159 kts | 43° |
| 2026-05-07 16:16 | 40.71759 | -73.91240 | 2135 ft | 163 kts | 52° |
| 2026-05-07 16:17 | 40.72099 | -73.89811 | 1947 ft | 162 kts | 72° |
| 2026-05-07 16:17 | 40.72339 | -73.88390 | 1722 ft | 155 kts | 72° |
| 2026-05-07 16:17 | 40.72579 | -73.87013 | 1495 ft | 154 kts | 73° |
| 2026-05-07 16:17 | 40.72819 | -73.85637 | 1285 ft | 155 kts | 73° |
| 2026-05-07 16:18 | 40.73193 | -73.84335 | 1022 ft | 149 kts | 42° |
| 2026-05-07 16:18 | 40.74078 | -73.83820 | 821 ft | 135 kts | 7° |
| 2026-05-07 16:18 | 40.74872 | -73.83349 | 1259 ft | 132 kts | 25° |
| 2026-05-07 16:18 | 40.75766 | -73.83153 | 1572 ft | 134 kts | 347° |
| 2026-05-07 16:19 | 40.76445 | -73.83946 | 1133 ft | 143 kts | 300° |
| 2026-05-07 16:19 | 40.76947 | -73.85200 | 280 ft | 161 kts | 307° |
| 2026-05-07 16:19 | 40.77531 | -73.86393 | 41 ft | 143 kts | 302° |
| 2026-05-07 16:19 | 40.77994 | -73.87358 | 17 ft | 97 kts | 303° |
| 2026-05-07 16:20 | 40.78202 | -73.87825 | 16 ft | 33 kts | 275° |